Time;durP1;ratioP1;P1;durP2;ratioP2;P2;SDS_P1;SDS_P2;PMS_P1;PMS_P2;Temp;Humidity;BMP_temperature;BMP_pressure;BME280_temperature;BME280_humidity;BME280_pressure;Samples;Min_cycle;Max_cycle;Signal;HPM_P1;HPM_P2
2024/01/31 00:01:33;;;;;;;169.25;160.05;;;;;;;;;;5030360;28;20391;-49
2024/01/31 00:03:58;;;;;;;156.45;148.32;;;;;;;;;;5028024;28;20861;-52
2024/01/31 00:06:23;;;;;;;161.68;153.27;;;;;;;;;;5031172;28;20244;-49
2024/01/31 00:08:49;;;;;;;160.48;152.30;;;;;;;;;;5030053;28;20032;-51
2024/01/31 00:11:14;;;;;;;167.32;158.85;;;;;;;;;;5027254;28;20120;-49
2024/01/31 00:13:39;;;;;;;160.45;152.15;;;;;;;;;;5029534;28;20243;-49
2024/01/31 00:16:05;;;;;;;166.15;157.73;;;;;;;;;;5030050;28;20056;-49
2024/01/31 00:18:30;;;;;;;163.50;155.18;;;;;;;;;;5029715;28;20056;-48
2024/01/31 00:20:56;;;;;;;174.35;165.60;;;;;;;;;;5035158;28;20033;-52
2024/01/31 00:23:21;;;;;;;169.68;161.00;;;;;;;;;;5029931;28;20079;-53
2024/01/31 00:25:47;;;;;;;166.38;157.55;;;;;;;;;;5031222;28;20026;-50
2024/01/31 00:28:12;;;;;;;173.48;164.65;;;;;;;;;;5026993;28;20044;-50
2024/01/31 00:30:38;;;;;;;162.52;154.27;;;;;;;;;;5028270;28;20033;-49
2024/01/31 00:33:04;;;;;;;163.95;155.68;;;;;;;;;;5029558;28;20716;-51
2024/01/31 00:35:29;;;;;;;163.15;154.65;;;;;;;;;;5033623;28;20166;-51
2024/01/31 00:37:55;;;;;;;173.27;164.48;;;;;;;;;;5029415;28;20228;-52
2024/01/31 00:40:20;;;;;;;170.73;162.10;;;;;;;;;;5028153;28;20037;-53
2024/01/31 00:42:45;;;;;;;167.93;159.38;;;;;;;;;;5032787;28;20032;-49
2024/01/31 00:45:13;;;;;;;160.85;152.57;;;;;;;;;;5032595;28;20541;-52
2024/01/31 00:47:39;;;;;;;160.75;152.60;;;;;;;;;;5029179;28;20037;-50
2024/01/31 00:50:05;;;;;;;157.80;149.73;;;;;;;;;;5028093;28;20044;-50
2024/01/31 00:52:30;;;;;;;160.10;151.73;;;;;;;;;;5031008;28;20032;-49
2024/01/31 00:54:56;;;;;;;163.43;155.10;;;;;;;;;;5028938;28;20053;-51
2024/01/31 00:57:21;;;;;;;167.18;158.60;;;;;;;;;;5031922;28;20030;-52
2024/01/31 00:59:46;;;;;;;163.70;155.27;;;;;;;;;;5031269;28;20032;-53
2024/01/31 01:02:12;;;;;;;159.00;150.82;;;;;;;;;;5030014;28;20041;-51
2024/01/31 01:04:37;;;;;;;165.15;156.75;;;;;;;;;;5031427;28;20214;-50
2024/01/31 01:07:02;;;;;;;165.88;156.15;;;;;;;;;;5027674;28;20167;-50
2024/01/31 01:09:28;;;;;;;164.23;155.57;;;;;;;;;;5028314;28;20448;-52
2024/01/31 01:11:53;;;;;;;167.88;159.18;;;;;;;;;;5031768;28;20034;-54
2024/01/31 01:14:18;;;;;;;159.40;151.27;;;;;;;;;;5030310;28;20437;-54
2024/01/31 01:16:44;;;;;;;163.98;155.70;;;;;;;;;;5032252;28;20072;-52
2024/01/31 01:19:09;;;;;;;179.18;170.13;;;;;;;;;;5029527;28;20052;-52
2024/01/31 01:21:36;;;;;;;165.93;157.45;;;;;;;;;;5031370;28;20045;-49
2024/01/31 01:24:01;;;;;;;166.90;158.38;;;;;;;;;;5029255;28;20459;-53
2024/01/31 01:26:26;;;;;;;162.98;154.35;;;;;;;;;;5029562;28;20038;-50
2024/01/31 01:28:52;;;;;;;174.10;165.32;;;;;;;;;;5030092;28;20040;-51
2024/01/31 01:31:18;;;;;;;171.13;162.48;;;;;;;;;;5028987;28;20101;-50
2024/01/31 01:33:43;;;;;;;173.70;164.65;;;;;;;;;;5030356;28;20044;-50
2024/01/31 01:36:09;;;;;;;172.38;163.48;;;;;;;;;;5031511;28;20372;-54
2024/01/31 01:38:36;;;;;;;163.75;155.27;;;;;;;;;;5030590;28;20037;-48
2024/01/31 01:41:01;;;;;;;174.48;165.70;;;;;;;;;;5030504;28;20040;-51
2024/01/31 01:43:26;;;;;;;188.25;178.65;;;;;;;;;;5032789;28;20417;-48
2024/01/31 01:45:59;;;;;;;192.15;182.60;;;;;;;;;;5033055;28;20029;-49
2024/01/31 01:48:25;;;;;;;175.93;167.15;;;;;;;;;;5031902;28;20032;-50
2024/01/31 01:50:51;;;;;;;169.93;161.25;;;;;;;;;;5031019;28;20060;-53
2024/01/31 01:53:17;;;;;;;178.63;169.13;;;;;;;;;;5029400;28;20044;-51
2024/01/31 01:55:43;;;;;;;166.98;158.50;;;;;;;;;;5031036;28;20036;-49
2024/01/31 01:58:09;;;;;;;169.30;160.60;;;;;;;;;;5027778;28;20099;-49
2024/01/31 02:00:34;;;;;;;171.18;162.15;;;;;;;;;;5031182;28;20414;-49
2024/01/31 02:03:01;;;;;;;165.00;156.63;;;;;;;;;;5026426;28;20037;-50
2024/01/31 02:05:27;;;;;;;159.95;151.75;;;;;;;;;;5033717;28;20028;-51
2024/01/31 02:07:52;;;;;;;165.13;156.80;;;;;;;;;;5034123;28;20025;-52
2024/01/31 02:10:19;;;;;;;172.75;163.75;;;;;;;;;;5035711;28;20529;-51
2024/01/31 02:12:44;;;;;;;176.07;167.20;;;;;;;;;;5033085;28;20040;-49
2024/01/31 02:15:09;;;;;;;175.70;166.65;;;;;;;;;;5029167;28;20116;-49
2024/01/31 02:17:35;;;;;;;168.90;160.32;;;;;;;;;;5032913;28;20053;-49
2024/01/31 02:20:00;;;;;;;171.02;162.10;;;;;;;;;;5032987;28;20383;-49
2024/01/31 02:22:25;;;;;;;174.05;165.27;;;;;;;;;;5034650;28;20415;-49
2024/01/31 02:24:51;;;;;;;175.48;166.65;;;;;;;;;;5035579;28;20094;-49
2024/01/31 02:27:16;;;;;;;165.13;156.73;;;;;;;;;;5029813;28;20140;-48
2024/01/31 02:29:42;;;;;;;176.00;166.55;;;;;;;;;;5034462;28;20029;-48
2024/01/31 02:32:07;;;;;;;171.45;162.80;;;;;;;;;;5029858;28;20472;-48
2024/01/31 02:34:33;;;;;;;178.32;169.30;;;;;;;;;;5036927;28;20100;-48
2024/01/31 02:36:58;;;;;;;176.05;167.10;;;;;;;;;;5032811;28;20051;-48
2024/01/31 02:39:24;;;;;;;175.35;166.40;;;;;;;;;;5034713;28;20037;-50
2024/01/31 02:41:49;;;;;;;184.80;175.52;;;;;;;;;;5032096;28;20033;-48
2024/01/31 02:44:15;;;;;;;184.45;174.98;;;;;;;;;;5033155;28;20032;-50
2024/01/31 02:46:40;;;;;;;176.98;167.75;;;;;;;;;;5034758;28;20057;-50
2024/01/31 02:49:07;;;;;;;166.70;158.25;;;;;;;;;;5031548;28;20030;-50
2024/01/31 02:51:34;;;;;;;177.63;168.70;;;;;;;;;;5034181;28;20404;-48
2024/01/31 02:53:59;;;;;;;179.77;170.68;;;;;;;;;;5032393;28;20032;-49
2024/01/31 02:56:24;;;;;;;179.90;170.02;;;;;;;;;;5033367;28;20033;-48
2024/01/31 02:58:50;;;;;;;178.70;169.43;;;;;;;;;;5035380;28;20041;-51
2024/01/31 03:01:15;;;;;;;175.27;166.23;;;;;;;;;;5032728;28;20052;-48
2024/01/31 03:03:40;;;;;;;168.38;159.52;;;;;;;;;;5032152;28;20036;-49
2024/01/31 03:06:06;;;;;;;167.85;159.43;;;;;;;;;;5032003;28;20263;-51
2024/01/31 03:08:31;;;;;;;175.52;166.68;;;;;;;;;;5031473;28;20363;-50
2024/01/31 03:10:56;;;;;;;173.00;164.27;;;;;;;;;;5030901;28;20063;-49
2024/01/31 03:13:22;;;;;;;173.35;164.57;;;;;;;;;;5034929;28;20030;-51
2024/01/31 03:15:47;;;;;;;159.73;151.65;;;;;;;;;;5032199;28;20040;-52
2024/01/31 03:18:12;;;;;;;167.45;158.98;;;;;;;;;;5033014;28;20052;-50
2024/01/31 03:20:38;;;;;;;166.20;157.65;;;;;;;;;;5032760;28;20029;-51
2024/01/31 03:23:03;;;;;;;165.40;156.98;;;;;;;;;;5033153;28;20048;-48
2024/01/31 03:25:28;;;;;;;167.98;159.48;;;;;;;;;;5032605;28;20028;-50
2024/01/31 03:27:54;;;;;;;165.68;157.15;;;;;;;;;;5029543;28;20109;-49
2024/01/31 03:30:19;;;;;;;162.40;154.20;;;;;;;;;;5033327;28;20029;-53
2024/01/31 03:32:46;;;;;;;158.77;150.60;;;;;;;;;;5032756;28;20471;-48
2024/01/31 03:35:11;;;;;;;160.70;152.48;;;;;;;;;;5032454;28;20383;-50
2024/01/31 03:37:36;;;;;;;159.60;151.55;;;;;;;;;;5032410;28;20040;-49
2024/01/31 03:40:05;;;;;;;166.55;157.73;;;;;;;;;;5031616;28;20041;-51
2024/01/31 03:42:30;;;;;;;158.93;150.80;;;;;;;;;;5032579;28;20091;-52
2024/01/31 03:44:56;;;;;;;158.65;150.57;;;;;;;;;;5028773;28;20029;-48
2024/01/31 03:47:22;;;;;;;166.23;156.48;;;;;;;;;;5032243;28;20017;-49
2024/01/31 03:49:47;;;;;;;156.80;148.93;;;;;;;;;;5029818;28;20066;-50
2024/01/31 03:52:13;;;;;;;154.48;146.73;;;;;;;;;;5031113;28;20540;-51
2024/01/31 03:54:38;;;;;;;165.55;157.23;;;;;;;;;;5029625;28;20033;-50
2024/01/31 03:57:04;;;;;;;175.30;165.85;;;;;;;;;;5031976;28;20048;-48
2024/01/31 03:59:29;;;;;;;162.43;154.30;;;;;;;;;;5030869;28;20029;-50
2024/01/31 04:01:54;;;;;;;161.27;153.13;;;;;;;;;;5028653;28;20112;-50
2024/01/31 04:04:20;;;;;;;162.07;153.93;;;;;;;;;;5030897;28;20037;-48
2024/01/31 04:06:45;;;;;;;153.85;145.93;;;;;;;;;;5032387;28;20025;-50
2024/01/31 04:09:10;;;;;;;158.55;150.55;;;;;;;;;;5030473;28;20029;-51
2024/01/31 04:11:36;;;;;;;157.07;149.13;;;;;;;;;;5030371;28;20028;-52
2024/01/31 04:14:02;;;;;;;161.40;153.27;;;;;;;;;;5029310;28;20590;-53
2024/01/31 04:16:28;;;;;;;159.23;150.93;;;;;;;;;;5028301;28;20120;-51
2024/01/31 04:18:54;;;;;;;157.07;149.18;;;;;;;;;;5031182;28;20120;-51
2024/01/31 04:21:23;;;;;;;159.65;151.50;;;;;;;;;;5031729;28;20026;-53
2024/01/31 04:23:48;;;;;;;154.48;146.68;;;;;;;;;;5033011;28;20033;-50
2024/01/31 04:26:14;;;;;;;157.45;149.52;;;;;;;;;;5030008;28;20026;-50
2024/01/31 04:28:39;;;;;;;154.40;146.40;;;;;;;;;;5032913;28;20098;-49
2024/01/31 04:31:11;;;;;;;155.05;147.20;;;;;;;;;;5030329;28;20029;-51
2024/01/31 04:33:37;;;;;;;152.95;145.07;;;;;;;;;;5034451;28;20083;-48
2024/01/31 04:36:02;;;;;;;157.82;149.77;;;;;;;;;;5030107;28;20087;-51
2024/01/31 04:38:27;;;;;;;157.30;149.38;;;;;;;;;;5031759;28;20485;-51
2024/01/31 04:40:53;;;;;;;159.27;151.23;;;;;;;;;;5030111;28;20029;-49
2024/01/31 04:43:18;;;;;;;150.32;142.77;;;;;;;;;;5032353;28;20120;-52
2024/01/31 04:45:44;;;;;;;166.50;158.20;;;;;;;;;;5028836;28;20116;-52
2024/01/31 04:48:09;;;;;;;165.50;157.10;;;;;;;;;;5027157;28;20076;-50
2024/01/31 04:50:35;;;;;;;164.82;156.48;;;;;;;;;;5029958;28;20044;-52
2024/01/31 04:53:00;;;;;;;156.25;148.35;;;;;;;;;;5029838;28;20363;-49
2024/01/31 04:55:25;;;;;;;160.07;151.80;;;;;;;;;;5028839;28;20379;-50
2024/01/31 04:57:50;;;;;;;155.13;147.35;;;;;;;;;;5028399;28;20467;-54
2024/01/31 05:00:16;;;;;;;159.18;151.10;;;;;;;;;;5031298;28;20112;-49
2024/01/31 05:02:42;;;;;;;164.00;155.82;;;;;;;;;;5031086;28;20132;-50
2024/01/31 05:05:08;;;;;;;162.25;153.95;;;;;;;;;;5030040;28;20064;-52
2024/01/31 05:07:33;;;;;;;154.48;146.77;;;;;;;;;;5030916;28;20571;-50
2024/01/31 05:09:58;;;;;;;154.63;146.70;;;;;;;;;;5029857;28;20136;-52
2024/01/31 05:12:24;;;;;;;154.32;146.50;;;;;;;;;;5011720;28;20025;-49
2024/01/31 05:14:49;;;;;;;151.35;143.82;;;;;;;;;;5030953;28;20037;-47
2024/01/31 05:17:15;;;;;;;152.00;144.43;;;;;;;;;;5026960;28;20037;-49
2024/01/31 05:19:42;;;;;;;148.07;140.65;;;;;;;;;;5029149;28;20943;-49
2024/01/31 05:22:07;;;;;;;143.25;136.07;;;;;;;;;;5031369;28;20398;-46
2024/01/31 05:24:33;;;;;;;137.13;130.30;;;;;;;;;;5030755;28;20091;-48
2024/01/31 05:27:04;;;;;;;126.75;120.40;;;;;;;;;;5031425;28;20072;-48
2024/01/31 05:29:30;;;;;;;120.90;114.75;;;;;;;;;;5031529;28;20411;-47
2024/01/31 05:31:55;;;;;;;115.18;109.45;;;;;;;;;;5029905;28;20044;-48
2024/01/31 05:34:22;;;;;;;107.07;101.65;;;;;;;;;;5032213;28;20457;-51
2024/01/31 05:36:48;;;;;;;104.60;99.35;;;;;;;;;;5029265;28;20044;-49
2024/01/31 05:39:13;;;;;;;95.68;90.72;;;;;;;;;;5033296;28;20037;-48
2024/01/31 05:41:43;;;;;;;96.28;91.45;;;;;;;;;;5034848;28;20043;-49
2024/01/31 05:44:08;;;;;;;92.28;87.43;;;;;;;;;;5032943;28;20036;-48
2024/01/31 05:46:33;;;;;;;87.80;83.35;;;;;;;;;;5037950;28;20036;-49
2024/01/31 05:49:01;;;;;;;90.78;86.13;;;;;;;;;;5032729;28;20111;-50
2024/01/31 05:51:27;;;;;;;94.90;89.82;;;;;;;;;;5032882;28;20029;-48
2024/01/31 05:53:53;;;;;;;92.28;87.60;;;;;;;;;;5035189;28;20039;-51
2024/01/31 05:56:18;;;;;;;90.40;85.85;;;;;;;;;;5033114;28;20037;-51
2024/01/31 05:58:43;;;;;;;93.80;88.95;;;;;;;;;;5037266;28;20576;-50
2024/01/31 06:01:09;;;;;;;98.03;93.18;;;;;;;;;;5033683;28;20362;-48
2024/01/31 06:03:34;;;;;;;86.05;81.75;;;;;;;;;;5033191;28;20456;-47
2024/01/31 06:05:59;;;;;;;86.57;82.28;;;;;;;;;;5034559;28;20581;-47
2024/01/31 06:08:25;;;;;;;88.22;83.78;;;;;;;;;;5035825;28;20056;-51
2024/01/31 06:10:54;;;;;;;86.00;81.65;;;;;;;;;;5035607;28;20041;-50
2024/01/31 06:13:20;;;;;;;83.90;79.68;;;;;;;;;;5034432;28;20489;-49
2024/01/31 06:15:45;;;;;;;78.25;74.30;;;;;;;;;;5034923;28;20463;-49
2024/01/31 06:18:11;;;;;;;71.18;67.53;;;;;;;;;;5033097;28;20106;-50
2024/01/31 06:20:40;;;;;;;69.72;66.18;;;;;;;;;;5035546;28;20521;-50
2024/01/31 06:23:06;;;;;;;65.45;62.05;;;;;;;;;;5036085;28;20052;-50
2024/01/31 06:25:32;;;;;;;62.03;58.75;;;;;;;;;;5039754;28;20025;-50
2024/01/31 06:27:57;;;;;;;64.18;60.88;;;;;;;;;;5033453;28;20036;-50
2024/01/31 06:30:31;;;;;;;61.95;58.83;;;;;;;;;;5035859;28;20033;-50
2024/01/31 06:33:05;;;;;;;59.40;56.33;;;;;;;;;;5034823;28;20029;-48
2024/01/31 06:35:31;;;;;;;57.80;54.90;;;;;;;;;;5033841;28;20323;-51
2024/01/31 06:37:56;;;;;;;59.72;56.65;;;;;;;;;;5032670;28;20033;-52
2024/01/31 06:40:22;;;;;;;57.38;54.45;;;;;;;;;;5031813;28;20041;-51
2024/01/31 06:42:48;;;;;;;53.03;50.22;;;;;;;;;;5031585;28;20086;-50
2024/01/31 06:45:14;;;;;;;53.08;50.13;;;;;;;;;;5031649;28;20044;-48
2024/01/31 06:47:39;;;;;;;52.88;50.10;;;;;;;;;;5032717;28;20323;-51
2024/01/31 06:50:05;;;;;;;54.65;51.72;;;;;;;;;;5030682;28;20045;-49
2024/01/31 06:52:30;;;;;;;53.05;50.08;;;;;;;;;;5031083;28;20033;-50
2024/01/31 06:54:56;;;;;;;46.13;43.72;;;;;;;;;;5030037;28;20116;-53
2024/01/31 06:57:21;;;;;;;44.58;42.05;;;;;;;;;;5030412;28;20400;-50
2024/01/31 06:59:47;;;;;;;41.65;39.50;;;;;;;;;;5033498;28;20110;-51
2024/01/31 07:02:12;;;;;;;43.20;40.97;;;;;;;;;;5031789;28;20384;-49
2024/01/31 07:04:38;;;;;;;41.95;39.67;;;;;;;;;;5032592;28;20025;-53
2024/01/31 07:07:03;;;;;;;44.25;41.92;;;;;;;;;;5029942;28;20360;-55
2024/01/31 07:09:29;;;;;;;45.17;42.80;;;;;;;;;;5030735;28;20091;-50
2024/01/31 07:11:56;;;;;;;48.53;45.95;;;;;;;;;;5032711;28;20045;-49
2024/01/31 07:14:22;;;;;;;48.83;46.15;;;;;;;;;;5031806;28;20762;-51
2024/01/31 07:16:47;;;;;;;53.75;50.75;;;;;;;;;;5035347;28;20108;-46
2024/01/31 07:19:13;;;;;;;52.22;49.38;;;;;;;;;;5034318;28;20037;-46
2024/01/31 07:21:39;;;;;;;54.50;51.50;;;;;;;;;;5034824;28;20474;-48
2024/01/31 07:24:04;;;;;;;54.50;51.70;;;;;;;;;;5032333;28;20037;-47
2024/01/31 07:26:30;;;;;;;54.42;51.63;;;;;;;;;;5032222;28;20044;-47
2024/01/31 07:28:55;;;;;;;55.22;52.38;;;;;;;;;;5031667;28;20037;-46
2024/01/31 07:31:21;;;;;;;56.58;53.67;;;;;;;;;;5030236;28;20503;-47
2024/01/31 07:33:46;;;;;;;55.92;53.05;;;;;;;;;;5033450;28;20048;-48
2024/01/31 07:36:12;;;;;;;58.85;55.83;;;;;;;;;;5032307;28;20033;-48
2024/01/31 07:38:45;;;;;;;55.22;52.28;;;;;;;;;;5030249;28;20112;-49
2024/01/31 07:41:10;;;;;;;54.58;51.67;;;;;;;;;;5031995;28;20129;-50
2024/01/31 07:43:36;;;;;;;53.33;50.55;;;;;;;;;;5030514;28;20025;-49
2024/01/31 07:46:03;;;;;;;57.17;54.28;;;;;;;;;;5032559;28;20040;-48
2024/01/31 07:48:29;;;;;;;57.25;54.33;;;;;;;;;;5031533;28;20083;-51
2024/01/31 07:50:55;;;;;;;59.28;55.97;;;;;;;;;;5031145;28;20482;-50
2024/01/31 07:53:20;;;;;;;60.53;57.33;;;;;;;;;;5030538;28;20033;-48
2024/01/31 07:55:45;;;;;;;61.30;58.13;;;;;;;;;;5033535;28;20049;-47
2024/01/31 07:58:11;;;;;;;62.53;59.15;;;;;;;;;;5033979;28;20128;-52
2024/01/31 08:00:36;;;;;;;61.70;58.47;;;;;;;;;;5028886;28;20109;-53
2024/01/31 08:03:01;;;;;;;63.90;60.55;;;;;;;;;;5032408;28;20048;-52
2024/01/31 08:05:27;;;;;;;63.25;59.90;;;;;;;;;;5031989;28;20419;-50
2024/01/31 08:07:52;;;;;;;60.85;57.55;;;;;;;;;;5033297;28;20029;-50
2024/01/31 08:10:17;;;;;;;61.15;57.92;;;;;;;;;;5032512;28;20227;-52
2024/01/31 08:12:44;;;;;;;65.60;62.22;;;;;;;;;;5036147;28;20569;-49
2024/01/31 08:15:10;;;;;;;59.65;56.47;;;;;;;;;;5034910;28;20037;-49
2024/01/31 08:17:35;;;;;;;60.10;57.00;;;;;;;;;;5033498;28;20624;-49
2024/01/31 08:20:01;;;;;;;60.80;57.60;;;;;;;;;;5035924;28;20707;-52
2024/01/31 08:22:26;;;;;;;66.15;62.80;;;;;;;;;;5033543;28;20024;-51
2024/01/31 08:24:52;;;;;;;62.95;59.67;;;;;;;;;;5033421;28;20036;-51
2024/01/31 08:27:18;;;;;;;69.32;65.57;;;;;;;;;;5035059;28;20056;-52
2024/01/31 08:29:46;;;;;;;70.75;67.13;;;;;;;;;;5034802;28;20423;-50
2024/01/31 08:32:11;;;;;;;73.30;69.38;;;;;;;;;;5031777;28;20056;-52
2024/01/31 08:34:37;;;;;;;72.25;68.63;;;;;;;;;;5030777;28;20033;-51
2024/01/31 08:37:02;;;;;;;68.55;65.10;;;;;;;;;;5032698;28;20135;-52
2024/01/31 08:39:29;;;;;;;70.10;66.50;;;;;;;;;;5030786;28;20037;-48
2024/01/31 08:41:55;;;;;;;68.78;65.18;;;;;;;;;;5034831;28;20466;-47
2024/01/31 08:44:21;;;;;;;70.90;67.35;;;;;;;;;;5033486;28;20033;-50
2024/01/31 08:46:46;;;;;;;72.32;68.57;;;;;;;;;;5034547;28;20025;-52
2024/01/31 08:49:11;;;;;;;78.43;74.45;;;;;;;;;;5035027;28;20109;-52
2024/01/31 08:51:38;;;;;;;80.03;75.35;;;;;;;;;;5033061;28;20025;-52
2024/01/31 08:54:05;;;;;;;80.60;76.53;;;;;;;;;;5033875;28;20517;-51
2024/01/31 08:56:30;;;;;;;83.22;79.00;;;;;;;;;;5030665;28;20044;-51
2024/01/31 08:58:55;;;;;;;90.13;85.32;;;;;;;;;;5034289;28;20034;-52
2024/01/31 09:01:21;;;;;;;97.82;92.75;;;;;;;;;;5032637;28;20068;-53
2024/01/31 09:03:46;;;;;;;102.50;97.40;;;;;;;;;;5029917;28;20415;-52
2024/01/31 09:06:11;;;;;;;99.57;94.57;;;;;;;;;;5035569;28;20159;-51
2024/01/31 09:08:37;;;;;;;110.63;105.07;;;;;;;;;;5032524;28;20106;-52
2024/01/31 09:11:02;;;;;;;115.32;109.53;;;;;;;;;;5034524;28;20033;-51
2024/01/31 09:13:27;;;;;;;112.53;106.88;;;;;;;;;;5031051;28;20037;-52
2024/01/31 09:15:54;;;;;;;116.75;110.95;;;;;;;;;;5034399;28;20523;-50
2024/01/31 09:18:19;;;;;;;121.55;115.40;;;;;;;;;;5028663;28;20034;-51
2024/01/31 09:20:45;;;;;;;130.20;123.47;;;;;;;;;;5032630;28;20041;-50
2024/01/31 09:23:10;;;;;;;132.48;125.88;;;;;;;;;;5032600;28;20121;-53
2024/01/31 09:25:35;;;;;;;128.90;122.10;;;;;;;;;;5031431;28;20068;-51
2024/01/31 09:28:01;;;;;;;126.55;120.20;;;;;;;;;;5032616;28;20041;-50
2024/01/31 09:30:26;;;;;;;132.02;125.35;;;;;;;;;;5031945;28;20040;-52
2024/01/31 09:32:52;;;;;;;145.60;138.27;;;;;;;;;;5032317;28;20033;-51
2024/01/31 09:35:18;;;;;;;131.00;124.53;;;;;;;;;;5032632;28;20202;-52
2024/01/31 09:37:43;;;;;;;121.57;115.43;;;;;;;;;;5034512;28;20044;-53
2024/01/31 09:40:14;;;;;;;115.82;109.90;;;;;;;;;;5032082;28;20045;-51
2024/01/31 09:42:39;;;;;;;102.38;97.07;;;;;;;;;;5030181;28;20210;-47
2024/01/31 09:45:05;;;;;;;87.57;82.68;;;;;;;;;;5035931;28;20141;-52
2024/01/31 09:47:32;;;;;;;95.43;90.53;;;;;;;;;;5034283;28;20390;-52
2024/01/31 09:49:57;;;;;;;85.88;81.22;;;;;;;;;;5033348;28;20032;-53
2024/01/31 09:52:27;;;;;;;90.70;86.05;;;;;;;;;;5033046;28;20350;-54
2024/01/31 09:54:57;;;;;;;80.53;76.53;;;;;;;;;;5031376;28;20497;-54
2024/01/31 09:57:24;;;;;;;82.10;78.00;;;;;;;;;;5030796;28;20037;-54
2024/01/31 09:59:50;;;;;;;81.05;76.95;;;;;;;;;;5031213;28;20064;-50
2024/01/31 10:02:16;;;;;;;73.95;70.18;;;;;;;;;;5032953;28;20041;-53
2024/01/31 10:04:44;;;;;;;84.93;80.50;;;;;;;;;;5031956;28;20067;-50
2024/01/31 10:07:09;;;;;;;82.10;78.00;;;;;;;;;;5033724;28;20037;-48
2024/01/31 10:09:35;;;;;;;87.63;83.22;;;;;;;;;;5032233;28;20494;-49
2024/01/31 10:12:00;;;;;;;53.20;50.42;;;;;;;;;;5031594;28;20580;-52
2024/01/31 10:14:25;;;;;;;37.90;35.95;;;;;;;;;;5030744;28;20112;-53
2024/01/31 10:16:51;;;;;;;33.55;31.80;;;;;;;;;;5028318;28;20126;-50
2024/01/31 10:19:16;;;;;;;34.65;32.85;;;;;;;;;;5032519;28;20699;-47
2024/01/31 10:21:41;;;;;;;33.90;32.13;;;;;;;;;;5030705;28;20036;-49
2024/01/31 10:24:07;;;;;;;34.47;32.60;;;;;;;;;;5033545;28;20055;-48
2024/01/31 10:26:36;;;;;;;43.95;41.70;;;;;;;;;;5038181;28;20371;-50
2024/01/31 10:29:02;;;;;;;46.60;44.20;;;;;;;;;;5036818;28;20048;-54
2024/01/31 10:31:28;;;;;;;42.58;40.38;;;;;;;;;;5037683;28;20370;-53
2024/01/31 10:33:57;;;;;;;49.90;47.30;;;;;;;;;;5034805;28;20033;-49
2024/01/31 10:36:23;;;;;;;53.05;50.38;;;;;;;;;;5035520;28;20037;-51
2024/01/31 10:38:50;;;;;;;52.97;50.28;;;;;;;;;;5033954;28;20052;-50
2024/01/31 10:41:19;;;;;;;54.08;51.15;;;;;;;;;;5032887;28;20041;-48
2024/01/31 10:43:47;;;;;;;36.63;34.72;;;;;;;;;;5033384;28;20030;-52
2024/01/31 10:46:12;;;;;;;40.47;38.38;;;;;;;;;;5035161;28;20026;-51
2024/01/31 10:48:38;;;;;;;43.13;40.92;;;;;;;;;;5036366;28;20048;-49
2024/01/31 10:51:06;;;;;;;38.13;36.15;;;;;;;;;;5034624;28;20038;-51
2024/01/31 10:53:33;;;;;;;33.05;31.27;;;;;;;;;;5034872;28;20032;-52
2024/01/31 10:55:59;;;;;;;31.05;29.40;;;;;;;;;;5024440;28;20092;-52
2024/01/31 10:58:25;;;;;;;31.05;29.35;;;;;;;;;;5033270;28;20195;-52
2024/01/31 11:00:52;;;;;;;29.85;28.30;;;;;;;;;;5034796;28;20650;-52
2024/01/31 11:03:17;;;;;;;33.25;31.55;;;;;;;;;;5036497;28;20115;-51
2024/01/31 11:05:43;;;;;;;29.10;27.60;;;;;;;;;;5031915;28;20120;-47
2024/01/31 11:08:21;;;;;;;28.70;27.10;;;;;;;;;;5035430;28;20457;-49
2024/01/31 11:10:48;;;;;;;28.70;27.10;;;;;;;;;;5033389;28;20541;-48
2024/01/31 11:13:13;;;;;;;26.85;25.45;;;;;;;;;;5034248;28;20061;-50
2024/01/31 11:15:39;;;;;;;27.23;25.83;;;;;;;;;;5033961;28;20057;-48
2024/01/31 11:18:09;;;;;;;28.83;27.33;;;;;;;;;;5034016;28;20037;-50
2024/01/31 11:20:36;;;;;;;28.80;27.30;;;;;;;;;;5034959;28;20033;-51
2024/01/31 11:23:05;;;;;;;28.00;26.50;;;;;;;;;;5037033;28;20451;-48
2024/01/31 11:25:32;;;;;;;27.60;26.20;;;;;;;;;;5034447;28;20072;-48
2024/01/31 11:27:58;;;;;;;30.33;28.73;;;;;;;;;;5033802;28;20766;-49
2024/01/31 11:30:24;;;;;;;27.00;25.60;;;;;;;;;;5034022;28;20112;-52
2024/01/31 11:32:49;;;;;;;26.80;25.40;;;;;;;;;;5033294;28;20060;-52
2024/01/31 11:35:15;;;;;;;30.45;28.85;;;;;;;;;;5034243;28;20041;-51
2024/01/31 11:37:40;;;;;;;32.92;31.23;;;;;;;;;;5034271;28;20057;-50
2024/01/31 11:40:06;;;;;;;37.17;35.28;;;;;;;;;;5032521;28;20030;-48
2024/01/31 11:42:32;;;;;;;40.25;36.88;;;;;;;;;;5033498;28;20041;-48
2024/01/31 11:44:58;;;;;;;38.22;36.28;;;;;;;;;;5032393;28;20061;-51
2024/01/31 11:47:23;;;;;;;45.97;43.67;;;;;;;;;;5032168;28;20033;-49
2024/01/31 11:49:48;;;;;;;39.88;37.88;;;;;;;;;;5030724;28;20033;-47
2024/01/31 11:52:14;;;;;;;39.65;37.47;;;;;;;;;;5033326;28;20032;-48
2024/01/31 11:54:39;;;;;;;42.83;40.63;;;;;;;;;;5035802;28;20036;-48
2024/01/31 11:57:05;;;;;;;40.13;38.03;;;;;;;;;;5036381;28;20030;-50
2024/01/31 11:59:31;;;;;;;39.65;37.58;;;;;;;;;;5037048;28;20607;-52
2024/01/31 12:01:56;;;;;;;43.55;41.35;;;;;;;;;;5032117;28;20064;-50
2024/01/31 12:04:25;;;;;;;42.45;40.25;;;;;;;;;;5035736;28;20036;-49
2024/01/31 12:06:50;;;;;;;42.70;40.50;;;;;;;;;;5031750;28;20589;-52
2024/01/31 12:09:16;;;;;;;40.65;38.58;;;;;;;;;;5032300;28;20098;-50
2024/01/31 12:11:41;;;;;;;39.40;37.40;;;;;;;;;;5031116;28;20025;-50
2024/01/31 12:14:07;;;;;;;37.42;35.53;;;;;;;;;;5030521;28;20664;-50
2024/01/31 12:16:40;;;;;;;37.55;35.35;;;;;;;;;;5031677;28;20038;-48
2024/01/31 12:19:07;;;;;;;37.38;35.47;;;;;;;;;;5036243;28;20102;-60
2024/01/31 12:21:42;;;;;;;39.30;37.25;;;;;;;;;;5031646;28;20045;-60
2024/01/31 12:24:08;;;;;;;38.30;36.28;;;;;;;;;;5031101;28;20064;-51
2024/01/31 12:26:33;;;;;;;34.05;32.30;;;;;;;;;;5032661;28;20111;-47
2024/01/31 12:28:58;;;;;;;33.47;31.75;;;;;;;;;;5031750;28;20162;-48
2024/01/31 12:31:24;;;;;;;37.03;35.13;;;;;;;;;;5032642;28;20036;-59
2024/01/31 12:33:49;;;;;;;31.92;30.27;;;;;;;;;;5032914;28;20037;-52
2024/01/31 12:36:15;;;;;;;28.17;26.67;;;;;;;;;;5031278;28;20048;-48
2024/01/31 12:38:40;;;;;;;29.30;27.80;;;;;;;;;;5032637;28;20597;-49
2024/01/31 12:41:06;;;;;;;28.05;26.58;;;;;;;;;;5029493;28;21208;-51
2024/01/31 12:43:31;;;;;;;31.00;29.35;;;;;;;;;;5032617;28;20120;-51
2024/01/31 12:45:57;;;;;;;27.33;25.92;;;;;;;;;;5030172;28;20029;-59
2024/01/31 12:48:22;;;;;;;28.98;27.48;;;;;;;;;;5032920;28;20462;-50
2024/01/31 12:50:48;;;;;;;29.50;27.92;;;;;;;;;;5035794;28;20391;-47
2024/01/31 12:53:13;;;;;;;28.60;27.10;;;;;;;;;;5034429;28;20414;-49
2024/01/31 12:55:38;;;;;;;26.25;24.88;;;;;;;;;;5032298;28;20508;-59
2024/01/31 12:58:04;;;;;;;30.80;29.20;;;;;;;;;;5029887;28;20119;-60
2024/01/31 13:00:29;;;;;;;29.98;28.40;;;;;;;;;;5033468;28;20034;-59
2024/01/31 13:02:54;;;;;;;27.50;26.08;;;;;;;;;;5029078;28;20045;-59
2024/01/31 13:05:20;;;;;;;27.38;25.95;;;;;;;;;;5034621;28;20144;-59
2024/01/31 13:07:45;;;;;;;27.13;25.73;;;;;;;;;;5031521;28;20680;-52
2024/01/31 13:10:10;;;;;;;28.50;27.00;;;;;;;;;;5032741;28;20040;-48
2024/01/31 13:12:36;;;;;;;26.60;25.20;;;;;;;;;;5030685;28;20459;-50
2024/01/31 13:15:01;;;;;;;27.00;25.60;;;;;;;;;;5035485;28;20034;-61
2024/01/31 13:17:27;;;;;;;26.15;24.77;;;;;;;;;;5031176;28;20026;-61
2024/01/31 13:19:52;;;;;;;26.48;25.05;;;;;;;;;;5027199;28;20036;-61
2024/01/31 13:22:17;;;;;;;28.30;26.80;;;;;;;;;;5036771;28;20039;-48
2024/01/31 13:24:43;;;;;;;26.30;24.92;;;;;;;;;;5033317;28;20129;-53
2024/01/31 13:27:08;;;;;;;27.45;26.00;;;;;;;;;;5031816;28;20282;-50
2024/01/31 13:29:33;;;;;;;27.88;26.40;;;;;;;;;;5034533;28;20032;-52
2024/01/31 13:31:59;;;;;;;28.45;26.95;;;;;;;;;;5032823;28;20044;-50
2024/01/31 13:34:24;;;;;;;27.73;26.25;;;;;;;;;;5032771;28;20041;-51
2024/01/31 13:36:52;;;;;;;29.65;28.00;;;;;;;;;;5031198;28;20120;-49
2024/01/31 13:39:18;;;;;;;28.58;26.77;;;;;;;;;;5031575;28;20223;-51
2024/01/31 13:41:43;;;;;;;30.15;28.55;;;;;;;;;;5033783;28;20116;-49
2024/01/31 13:44:08;;;;;;;28.40;26.90;;;;;;;;;;5034551;28;20043;-48
2024/01/31 13:46:37;;;;;;;30.23;28.40;;;;;;;;;;5028530;28;20030;-49
2024/01/31 13:49:03;;;;;;;32.28;30.58;;;;;;;;;;5033011;28;20064;-49
2024/01/31 13:51:28;;;;;;;30.48;28.88;;;;;;;;;;5032423;28;20371;-51
2024/01/31 13:53:54;;;;;;;28.92;27.42;;;;;;;;;;5008102;28;20123;-50
2024/01/31 13:56:19;;;;;;;30.65;29.05;;;;;;;;;;5032947;28;20047;-54
2024/01/31 13:58:44;;;;;;;29.65;28.13;;;;;;;;;;5034410;28;20032;-60